sensor_id;sensor_type;location;lat;lon;timestamp;P1;durP1;ratioP1;P2;durP2;ratioP2
24383;SDS011;12504;52.870;8.798;2023-01-08T00:02:08;6.55;;;3.92;;
24383;SDS011;12504;52.870;8.798;2023-01-08T00:04:34;7.75;;;3.78;;
24383;SDS011;12504;52.870;8.798;2023-01-08T00:06:59;6.03;;;3.20;;
24383;SDS011;12504;52.870;8.798;2023-01-08T00:09:25;5.38;;;3.58;;
24383;SDS011;12504;52.870;8.798;2023-01-08T00:11:51;6.03;;;4.00;;
24383;SDS011;12504;52.870;8.798;2023-01-08T00:14:16;6.65;;;3.97;;
24383;SDS011;12504;52.870;8.798;2023-01-08T00:16:42;5.43;;;3.67;;
24383;SDS011;12504;52.870;8.798;2023-01-08T00:19:09;9.18;;;3.63;;
24383;SDS011;12504;52.870;8.798;2023-01-08T00:21:35;5.65;;;3.72;;
24383;SDS011;12504;52.870;8.798;2023-01-08T00:24:01;5.20;;;3.35;;
24383;SDS011;12504;52.870;8.798;2023-01-08T00:26:27;5.53;;;3.67;;
24383;SDS011;12504;52.870;8.798;2023-01-08T00:28:53;7.65;;;3.90;;
24383;SDS011;12504;52.870;8.798;2023-01-08T00:31:18;7.38;;;3.72;;
24383;SDS011;12504;52.870;8.798;2023-01-08T00:33:44;4.57;;;3.45;;
24383;SDS011;12504;52.870;8.798;2023-01-08T00:36:14;6.22;;;4.22;;
24383;SDS011;12504;52.870;8.798;2023-01-08T00:38:41;6.32;;;3.55;;
24383;SDS011;12504;52.870;8.798;2023-01-08T00:41:07;8.25;;;3.58;;
24383;SDS011;12504;52.870;8.798;2023-01-08T00:43:33;5.35;;;3.63;;
24383;SDS011;12504;52.870;8.798;2023-01-08T00:45:59;5.95;;;3.65;;
24383;SDS011;12504;52.870;8.798;2023-01-08T00:48:24;6.88;;;3.40;;
24383;SDS011;12504;52.870;8.798;2023-01-08T00:50:51;7.40;;;3.67;;
24383;SDS011;12504;52.870;8.798;2023-01-08T00:53:17;5.28;;;3.42;;
24383;SDS011;12504;52.870;8.798;2023-01-08T00:55:43;7.72;;;3.45;;
24383;SDS011;12504;52.870;8.798;2023-01-08T00:58:10;6.72;;;3.53;;
24383;SDS011;12504;52.870;8.798;2023-01-08T01:00:36;6.82;;;3.08;;
24383;SDS011;12504;52.870;8.798;2023-01-08T01:03:02;4.63;;;2.97;;
24383;SDS011;12504;52.870;8.798;2023-01-08T01:05:28;4.43;;;3.38;;
24383;SDS011;12504;52.870;8.798;2023-01-08T01:07:53;3.47;;;2.53;;
24383;SDS011;12504;52.870;8.798;2023-01-08T01:10:21;5.38;;;3.85;;
24383;SDS011;12504;52.870;8.798;2023-01-08T01:12:47;5.13;;;3.63;;
24383;SDS011;12504;52.870;8.798;2023-01-08T01:15:13;10.50;;;3.13;;
24383;SDS011;12504;52.870;8.798;2023-01-08T01:17:41;5.35;;;3.38;;
24383;SDS011;12504;52.870;8.798;2023-01-08T01:20:09;5.72;;;2.85;;
24383;SDS011;12504;52.870;8.798;2023-01-08T01:22:37;5.22;;;3.38;;
24383;SDS011;12504;52.870;8.798;2023-01-08T01:25:03;6.13;;;4.15;;
24383;SDS011;12504;52.870;8.798;2023-01-08T01:27:29;6.43;;;3.38;;
24383;SDS011;12504;52.870;8.798;2023-01-08T01:29:54;4.88;;;2.92;;
24383;SDS011;12504;52.870;8.798;2023-01-08T01:32:20;5.30;;;3.05;;
24383;SDS011;12504;52.870;8.798;2023-01-08T01:34:46;3.00;;;2.30;;
24383;SDS011;12504;52.870;8.798;2023-01-08T01:37:12;5.32;;;2.72;;
24383;SDS011;12504;52.870;8.798;2023-01-08T01:39:39;3.70;;;2.90;;
24383;SDS011;12504;52.870;8.798;2023-01-08T01:42:10;4.32;;;2.75;;
24383;SDS011;12504;52.870;8.798;2023-01-08T01:44:57;6.65;;;2.80;;
24383;SDS011;12504;52.870;8.798;2023-01-08T01:49:55;4.70;;;2.97;;
24383;SDS011;12504;52.870;8.798;2023-01-08T01:52:38;5.18;;;3.17;;
24383;SDS011;12504;52.870;8.798;2023-01-08T01:55:07;6.22;;;3.33;;
24383;SDS011;12504;52.870;8.798;2023-01-08T01:57:35;5.03;;;2.72;;
24383;SDS011;12504;52.870;8.798;2023-01-08T02:00:03;4.80;;;2.80;;
24383;SDS011;12504;52.870;8.798;2023-01-08T02:02:36;4.47;;;2.70;;
24383;SDS011;12504;52.870;8.798;2023-01-08T02:05:02;5.32;;;3.13;;
24383;SDS011;12504;52.870;8.798;2023-01-08T02:10:20;4.45;;;2.97;;
24383;SDS011;12504;52.870;8.798;2023-01-08T02:12:56;6.22;;;3.35;;
24383;SDS011;12504;52.870;8.798;2023-01-08T02:15:33;5.25;;;2.53;;
24383;SDS011;12504;52.870;8.798;2023-01-08T02:18:25;4.10;;;2.65;;
24383;SDS011;12504;52.870;8.798;2023-01-08T02:21:03;4.78;;;2.85;;
24383;SDS011;12504;52.870;8.798;2023-01-08T02:23:41;4.72;;;3.13;;
24383;SDS011;12504;52.870;8.798;2023-01-08T02:31:28;3.05;;;2.70;;
24383;SDS011;12504;52.870;8.798;2023-01-08T02:33:55;3.90;;;3.08;;
24383;SDS011;12504;52.870;8.798;2023-01-08T02:36:26;4.93;;;3.05;;
24383;SDS011;12504;52.870;8.798;2023-01-08T02:39:09;7.63;;;3.22;;
24383;SDS011;12504;52.870;8.798;2023-01-08T02:41:43;5.85;;;3.25;;
24383;SDS011;12504;52.870;8.798;2023-01-08T02:44:22;4.43;;;2.88;;
24383;SDS011;12504;52.870;8.798;2023-01-08T02:46:56;6.22;;;2.85;;
24383;SDS011;12504;52.870;8.798;2023-01-08T02:49:26;4.65;;;2.85;;
24383;SDS011;12504;52.870;8.798;2023-01-08T02:51:54;6.35;;;3.35;;
24383;SDS011;12504;52.870;8.798;2023-01-08T02:54:24;6.25;;;3.35;;
24383;SDS011;12504;52.870;8.798;2023-01-08T02:56:56;3.95;;;2.50;;
24383;SDS011;12504;52.870;8.798;2023-01-08T02:59:26;4.85;;;2.97;;
24383;SDS011;12504;52.870;8.798;2023-01-08T03:01:53;5.82;;;3.35;;
24383;SDS011;12504;52.870;8.798;2023-01-08T03:04:21;5.65;;;3.33;;
24383;SDS011;12504;52.870;8.798;2023-01-08T03:06:47;8.32;;;3.38;;
24383;SDS011;12504;52.870;8.798;2023-01-08T03:09:14;4.75;;;3.30;;
24383;SDS011;12504;52.870;8.798;2023-01-08T03:11:45;4.72;;;2.45;;
24383;SDS011;12504;52.870;8.798;2023-01-08T03:14:19;4.80;;;2.97;;
24383;SDS011;12504;52.870;8.798;2023-01-08T03:17:09;4.43;;;3.05;;
24383;SDS011;12504;52.870;8.798;2023-01-08T03:19:43;4.60;;;3.70;;
24383;SDS011;12504;52.870;8.798;2023-01-08T03:22:17;3.80;;;2.88;;
24383;SDS011;12504;52.870;8.798;2023-01-08T03:24:45;6.50;;;3.22;;
24383;SDS011;12504;52.870;8.798;2023-01-08T03:27:15;6.75;;;3.00;;
24383;SDS011;12504;52.870;8.798;2023-01-08T03:32:12;5.80;;;3.50;;
24383;SDS011;12504;52.870;8.798;2023-01-08T03:34:41;4.72;;;3.03;;
24383;SDS011;12504;52.870;8.798;2023-01-08T03:37:11;5.70;;;3.15;;
24383;SDS011;12504;52.870;8.798;2023-01-08T03:39:56;5.35;;;3.17;;
24383;SDS011;12504;52.870;8.798;2023-01-08T03:42:24;7.32;;;2.95;;
24383;SDS011;12504;52.870;8.798;2023-01-08T03:44:52;7.30;;;2.92;;
24383;SDS011;12504;52.870;8.798;2023-01-08T03:47:17;5.68;;;3.10;;
24383;SDS011;12504;52.870;8.798;2023-01-08T03:49:44;4.50;;;3.25;;
24383;SDS011;12504;52.870;8.798;2023-01-08T03:52:26;6.32;;;3.10;;
24383;SDS011;12504;52.870;8.798;2023-01-08T03:54:54;5.03;;;2.50;;
24383;SDS011;12504;52.870;8.798;2023-01-08T03:57:19;5.07;;;2.63;;
24383;SDS011;12504;52.870;8.798;2023-01-08T03:59:45;5.50;;;2.70;;
24383;SDS011;12504;52.870;8.798;2023-01-08T04:02:11;4.72;;;2.45;;
24383;SDS011;12504;52.870;8.798;2023-01-08T04:04:37;5.50;;;4.03;;
24383;SDS011;12504;52.870;8.798;2023-01-08T04:07:02;6.15;;;2.60;;
24383;SDS011;12504;52.870;8.798;2023-01-08T04:09:28;5.22;;;4.30;;
24383;SDS011;12504;52.870;8.798;2023-01-08T04:11:54;3.90;;;2.83;;
24383;SDS011;12504;52.870;8.798;2023-01-08T04:14:19;7.85;;;4.57;;
24383;SDS011;12504;52.870;8.798;2023-01-08T04:16:45;4.90;;;2.90;;
24383;SDS011;12504;52.870;8.798;2023-01-08T04:19:11;4.22;;;2.53;;
24383;SDS011;12504;52.870;8.798;2023-01-08T04:21:37;7.30;;;2.92;;
24383;SDS011;12504;52.870;8.798;2023-01-08T04:24:03;4.53;;;2.70;;
24383;SDS011;12504;52.870;8.798;2023-01-08T04:26:29;5.68;;;3.38;;
24383;SDS011;12504;52.870;8.798;2023-01-08T04:28:55;5.00;;;2.65;;
24383;SDS011;12504;52.870;8.798;2023-01-08T04:31:21;4.63;;;2.95;;
24383;SDS011;12504;52.870;8.798;2023-01-08T04:33:46;6.18;;;2.88;;
24383;SDS011;12504;52.870;8.798;2023-01-08T04:36:13;6.68;;;4.10;;
24383;SDS011;12504;52.870;8.798;2023-01-08T04:38:39;4.43;;;2.50;;
24383;SDS011;12504;52.870;8.798;2023-01-08T04:41:04;4.65;;;3.03;;
24383;SDS011;12504;52.870;8.798;2023-01-08T04:43:30;4.85;;;2.90;;
24383;SDS011;12504;52.870;8.798;2023-01-08T04:45:57;4.82;;;3.05;;
24383;SDS011;12504;52.870;8.798;2023-01-08T04:48:23;4.20;;;3.05;;
24383;SDS011;12504;52.870;8.798;2023-01-08T04:50:48;4.18;;;2.63;;
24383;SDS011;12504;52.870;8.798;2023-01-08T04:53:15;4.68;;;2.78;;
24383;SDS011;12504;52.870;8.798;2023-01-08T04:55:41;5.40;;;2.88;;
24383;SDS011;12504;52.870;8.798;2023-01-08T04:58:07;3.97;;;2.13;;
24383;SDS011;12504;52.870;8.798;2023-01-08T05:00:33;4.75;;;2.85;;
24383;SDS011;12504;52.870;8.798;2023-01-08T05:02:59;5.07;;;2.83;;
24383;SDS011;12504;52.870;8.798;2023-01-08T05:05:25;9.60;;;3.63;;
24383;SDS011;12504;52.870;8.798;2023-01-08T05:07:50;6.25;;;2.42;;
24383;SDS011;12504;52.870;8.798;2023-01-08T05:10:16;3.88;;;2.72;;
24383;SDS011;12504;52.870;8.798;2023-01-08T05:12:42;4.35;;;2.55;;
24383;SDS011;12504;52.870;8.798;2023-01-08T05:15:08;4.35;;;2.55;;
24383;SDS011;12504;52.870;8.798;2023-01-08T05:17:33;15.73;;;5.28;;
24383;SDS011;12504;52.870;8.798;2023-01-08T05:19:59;5.45;;;3.38;;
24383;SDS011;12504;52.870;8.798;2023-01-08T05:22:25;6.63;;;2.58;;
24383;SDS011;12504;52.870;8.798;2023-01-08T05:24:50;8.95;;;3.58;;
24383;SDS011;12504;52.870;8.798;2023-01-08T05:27:16;7.95;;;2.80;;
24383;SDS011;12504;52.870;8.798;2023-01-08T05:29:42;6.20;;;2.25;;
24383;SDS011;12504;52.870;8.798;2023-01-08T05:32:14;5.15;;;2.42;;
24383;SDS011;12504;52.870;8.798;2023-01-08T05:34:41;4.05;;;2.53;;
24383;SDS011;12504;52.870;8.798;2023-01-08T05:37:07;4.00;;;3.17;;
24383;SDS011;12504;52.870;8.798;2023-01-08T05:39:32;4.03;;;2.08;;
24383;SDS011;12504;52.870;8.798;2023-01-08T05:41:58;5.00;;;2.38;;
24383;SDS011;12504;52.870;8.798;2023-01-08T05:44:23;4.45;;;2.35;;
24383;SDS011;12504;52.870;8.798;2023-01-08T05:46:51;5.15;;;2.50;;
24383;SDS011;12504;52.870;8.798;2023-01-08T05:49:17;3.67;;;2.13;;
24383;SDS011;12504;52.870;8.798;2023-01-08T05:51:44;4.13;;;2.65;;
24383;SDS011;12504;52.870;8.798;2023-01-08T05:54:09;4.38;;;2.78;;
24383;SDS011;12504;52.870;8.798;2023-01-08T05:56:35;7.38;;;2.70;;
24383;SDS011;12504;52.870;8.798;2023-01-08T05:59:01;7.13;;;2.78;;
24383;SDS011;12504;52.870;8.798;2023-01-08T06:01:26;3.72;;;2.40;;
24383;SDS011;12504;52.870;8.798;2023-01-08T06:03:53;3.55;;;2.30;;
24383;SDS011;12504;52.870;8.798;2023-01-08T06:06:20;4.47;;;2.20;;
24383;SDS011;12504;52.870;8.798;2023-01-08T06:08:45;2.50;;;1.90;;
24383;SDS011;12504;52.870;8.798;2023-01-08T06:11:11;4.00;;;2.00;;
24383;SDS011;12504;52.870;8.798;2023-01-08T06:13:39;6.90;;;2.38;;
24383;SDS011;12504;52.870;8.798;2023-01-08T06:16:06;3.20;;;2.28;;
24383;SDS011;12504;52.870;8.798;2023-01-08T06:18:32;4.90;;;2.30;;
24383;SDS011;12504;52.870;8.798;2023-01-08T06:20:58;4.53;;;2.58;;
24383;SDS011;12504;52.870;8.798;2023-01-08T06:23:23;3.47;;;2.33;;
24383;SDS011;12504;52.870;8.798;2023-01-08T06:25:52;3.95;;;2.65;;
24383;SDS011;12504;52.870;8.798;2023-01-08T06:28:19;5.57;;;2.75;;
24383;SDS011;12504;52.870;8.798;2023-01-08T06:30:45;3.97;;;2.63;;
24383;SDS011;12504;52.870;8.798;2023-01-08T06:33:10;3.92;;;2.38;;
24383;SDS011;12504;52.870;8.798;2023-01-08T06:35:36;3.47;;;2.05;;
24383;SDS011;12504;52.870;8.798;2023-01-08T06:38:01;3.85;;;2.40;;
24383;SDS011;12504;52.870;8.798;2023-01-08T06:40:27;2.80;;;2.22;;
24383;SDS011;12504;52.870;8.798;2023-01-08T06:42:53;4.88;;;2.45;;
24383;SDS011;12504;52.870;8.798;2023-01-08T06:45:19;3.90;;;2.30;;
24383;SDS011;12504;52.870;8.798;2023-01-08T06:47:44;4.13;;;2.30;;
24383;SDS011;12504;52.870;8.798;2023-01-08T06:50:10;3.25;;;2.22;;
24383;SDS011;12504;52.870;8.798;2023-01-08T06:52:36;7.05;;;2.10;;
24383;SDS011;12504;52.870;8.798;2023-01-08T06:55:03;3.83;;;2.30;;
24383;SDS011;12504;52.870;8.798;2023-01-08T06:57:30;2.65;;;1.95;;
24383;SDS011;12504;52.870;8.798;2023-01-08T06:59:56;3.83;;;2.20;;
24383;SDS011;12504;52.870;8.798;2023-01-08T07:02:21;6.07;;;2.38;;
24383;SDS011;12504;52.870;8.798;2023-01-08T07:04:47;3.30;;;2.08;;
24383;SDS011;12504;52.870;8.798;2023-01-08T07:07:13;2.58;;;2.00;;
24383;SDS011;12504;52.870;8.798;2023-01-08T07:09:40;3.75;;;2.08;;
24383;SDS011;12504;52.870;8.798;2023-01-08T07:12:10;3.47;;;2.05;;
24383;SDS011;12504;52.870;8.798;2023-01-08T07:14:38;4.70;;;1.75;;
24383;SDS011;12504;52.870;8.798;2023-01-08T07:17:04;5.10;;;2.40;;
24383;SDS011;12504;52.870;8.798;2023-01-08T07:19:30;2.67;;;2.00;;
24383;SDS011;12504;52.870;8.798;2023-01-08T07:21:56;4.72;;;2.05;;
24383;SDS011;12504;52.870;8.798;2023-01-08T07:24:21;4.03;;;2.03;;
24383;SDS011;12504;52.870;8.798;2023-01-08T07:26:47;2.92;;;1.85;;
24383;SDS011;12504;52.870;8.798;2023-01-08T07:29:13;6.47;;;2.80;;
24383;SDS011;12504;52.870;8.798;2023-01-08T07:31:38;3.85;;;2.97;;
24383;SDS011;12504;52.870;8.798;2023-01-08T07:34:04;2.90;;;1.77;;
24383;SDS011;12504;52.870;8.798;2023-01-08T07:36:30;3.38;;;2.00;;
24383;SDS011;12504;52.870;8.798;2023-01-08T07:38:56;7.05;;;3.03;;
24383;SDS011;12504;52.870;8.798;2023-01-08T07:41:21;3.72;;;2.25;;
24383;SDS011;12504;52.870;8.798;2023-01-08T07:43:48;3.60;;;2.33;;
24383;SDS011;12504;52.870;8.798;2023-01-08T07:46:14;2.25;;;2.05;;
24383;SDS011;12504;52.870;8.798;2023-01-08T07:48:40;4.13;;;2.17;;
24383;SDS011;12504;52.870;8.798;2023-01-08T07:51:06;5.38;;;2.08;;
24383;SDS011;12504;52.870;8.798;2023-01-08T07:53:33;3.97;;;2.45;;
24383;SDS011;12504;52.870;8.798;2023-01-08T07:56:00;3.35;;;2.53;;
24383;SDS011;12504;52.870;8.798;2023-01-08T07:58:27;4.90;;;2.30;;
24383;SDS011;12504;52.870;8.798;2023-01-08T08:00:53;3.80;;;2.10;;
24383;SDS011;12504;52.870;8.798;2023-01-08T08:03:19;3.70;;;2.92;;
24383;SDS011;12504;52.870;8.798;2023-01-08T08:05:45;3.65;;;2.72;;
24383;SDS011;12504;52.870;8.798;2023-01-08T08:08:11;3.22;;;2.17;;
24383;SDS011;12504;52.870;8.798;2023-01-08T08:10:37;3.95;;;2.17;;
24383;SDS011;12504;52.870;8.798;2023-01-08T08:13:04;5.78;;;2.53;;
24383;SDS011;12504;52.870;8.798;2023-01-08T08:15:30;2.92;;;2.20;;
24383;SDS011;12504;52.870;8.798;2023-01-08T08:17:57;2.97;;;2.55;;
24383;SDS011;12504;52.870;8.798;2023-01-08T08:20:22;4.13;;;2.63;;
24383;SDS011;12504;52.870;8.798;2023-01-08T08:22:48;7.68;;;4.47;;
24383;SDS011;12504;52.870;8.798;2023-01-08T08:25:14;5.93;;;3.75;;
24383;SDS011;12504;52.870;8.798;2023-01-08T08:27:43;4.25;;;2.60;;
24383;SDS011;12504;52.870;8.798;2023-01-08T08:30:09;3.33;;;2.28;;
24383;SDS011;12504;52.870;8.798;2023-01-08T08:32:36;8.63;;;3.45;;
24383;SDS011;12504;52.870;8.798;2023-01-08T08:35:02;4.53;;;3.03;;
24383;SDS011;12504;52.870;8.798;2023-01-08T08:37:28;4.78;;;3.03;;
24383;SDS011;12504;52.870;8.798;2023-01-08T08:39:54;5.03;;;3.10;;
24383;SDS011;12504;52.870;8.798;2023-01-08T08:42:20;4.70;;;3.03;;
24383;SDS011;12504;52.870;8.798;2023-01-08T08:44:45;9.13;;;4.57;;
24383;SDS011;12504;52.870;8.798;2023-01-08T08:47:11;7.70;;;4.78;;
24383;SDS011;12504;52.870;8.798;2023-01-08T08:49:37;7.35;;;3.90;;
24383;SDS011;12504;52.870;8.798;2023-01-08T08:52:04;7.85;;;4.70;;
24383;SDS011;12504;52.870;8.798;2023-01-08T08:54:29;3.80;;;2.80;;
24383;SDS011;12504;52.870;8.798;2023-01-08T08:56:55;3.58;;;2.75;;
24383;SDS011;12504;52.870;8.798;2023-01-08T08:59:21;5.50;;;2.55;;
24383;SDS011;12504;52.870;8.798;2023-01-08T09:01:46;3.47;;;2.35;;
24383;SDS011;12504;52.870;8.798;2023-01-08T09:04:12;5.38;;;3.47;;
24383;SDS011;12504;52.870;8.798;2023-01-08T09:06:37;10.98;;;6.75;;
24383;SDS011;12504;52.870;8.798;2023-01-08T09:09:03;23.27;;;15.07;;
24383;SDS011;12504;52.870;8.798;2023-01-08T09:11:30;11.23;;;7.53;;
24383;SDS011;12504;52.870;8.798;2023-01-08T09:13:55;5.97;;;3.67;;
24383;SDS011;12504;52.870;8.798;2023-01-08T09:16:21;4.53;;;3.05;;
24383;SDS011;12504;52.870;8.798;2023-01-08T09:18:47;6.47;;;3.70;;
24383;SDS011;12504;52.870;8.798;2023-01-08T09:21:13;5.50;;;3.40;;
24383;SDS011;12504;52.870;8.798;2023-01-08T09:23:39;4.07;;;3.63;;
24383;SDS011;12504;52.870;8.798;2023-01-08T09:26:05;3.08;;;2.35;;
24383;SDS011;12504;52.870;8.798;2023-01-08T09:28:31;8.00;;;4.07;;
24383;SDS011;12504;52.870;8.798;2023-01-08T09:31:00;6.65;;;4.75;;
24383;SDS011;12504;52.870;8.798;2023-01-08T09:33:27;3.50;;;2.13;;
24383;SDS011;12504;52.870;8.798;2023-01-08T09:35:53;4.32;;;1.75;;
24383;SDS011;12504;52.870;8.798;2023-01-08T09:38:18;2.80;;;2.15;;
24383;SDS011;12504;52.870;8.798;2023-01-08T09:40:55;3.95;;;1.52;;
24383;SDS011;12504;52.870;8.798;2023-01-08T09:43:25;5.15;;;1.60;;
24383;SDS011;12504;52.870;8.798;2023-01-08T09:45:55;5.15;;;1.33;;
24383;SDS011;12504;52.870;8.798;2023-01-08T09:48:25;2.22;;;1.40;;
24383;SDS011;12504;52.870;8.798;2023-01-08T09:50:53;1.95;;;1.10;;
24383;SDS011;12504;52.870;8.798;2023-01-08T09:53:20;1.90;;;1.30;;
24383;SDS011;12504;52.870;8.798;2023-01-08T09:55:49;2.78;;;1.15;;
24383;SDS011;12504;52.870;8.798;2023-01-08T09:58:40;2.95;;;1.80;;
24383;SDS011;12504;52.870;8.798;2023-01-08T10:01:14;2.25;;;1.27;;
24383;SDS011;12504;52.870;8.798;2023-01-08T10:03:47;1.75;;;1.13;;
24383;SDS011;12504;52.870;8.798;2023-01-08T10:06:23;2.25;;;1.35;;
24383;SDS011;12504;52.870;8.798;2023-01-08T10:08:50;2.70;;;1.73;;
24383;SDS011;12504;52.870;8.798;2023-01-08T10:11:16;1.83;;;1.40;;
24383;SDS011;12504;52.870;8.798;2023-01-08T10:13:45;2.90;;;1.33;;
24383;SDS011;12504;52.870;8.798;2023-01-08T10:16:20;1.92;;;1.13;;
24383;SDS011;12504;52.870;8.798;2023-01-08T10:18:54;1.35;;;0.93;;
24383;SDS011;12504;52.870;8.798;2023-01-08T10:21:21;1.35;;;0.93;;
24383;SDS011;12504;52.870;8.798;2023-01-08T10:23:53;5.00;;;1.33;;
24383;SDS011;12504;52.870;8.798;2023-01-08T10:26:26;2.17;;;1.65;;
24383;SDS011;12504;52.870;8.798;2023-01-08T10:29:06;4.05;;;1.58;;
24383;SDS011;12504;52.870;8.798;2023-01-08T10:31:46;2.03;;;1.40;;
24383;SDS011;12504;52.870;8.798;2023-01-08T10:34:27;4.05;;;1.20;;
24383;SDS011;12504;52.870;8.798;2023-01-08T10:36:57;3.75;;;1.38;;
24383;SDS011;12504;52.870;8.798;2023-01-08T10:39:24;3.72;;;1.50;;
24383;SDS011;12504;52.870;8.798;2023-01-08T10:41:54;4.80;;;1.15;;
24383;SDS011;12504;52.870;8.798;2023-01-08T10:44:23;2.00;;;1.40;;
24383;SDS011;12504;52.870;8.798;2023-01-08T10:46:51;1.98;;;1.45;;
24383;SDS011;12504;52.870;8.798;2023-01-08T10:49:28;2.50;;;1.15;;
24383;SDS011;12504;52.870;8.798;2023-01-08T10:52:03;3.05;;;1.42;;
24383;SDS011;12504;52.870;8.798;2023-01-08T10:56:55;2.30;;;1.10;;
24383;SDS011;12504;52.870;8.798;2023-01-08T10:59:21;4.93;;;1.35;;
24383;SDS011;12504;52.870;8.798;2023-01-08T11:01:48;2.83;;;1.98;;
24383;SDS011;12504;52.870;8.798;2023-01-08T11:04:33;5.10;;;1.90;;
24383;SDS011;12504;52.870;8.798;2023-01-08T11:07:01;2.60;;;1.50;;
24383;SDS011;12504;52.870;8.798;2023-01-08T11:09:33;4.97;;;2.08;;
24383;SDS011;12504;52.870;8.798;2023-01-08T11:12:04;2.78;;;1.25;;
24383;SDS011;12504;52.870;8.798;2023-01-08T11:15:00;4.43;;;1.20;;
24383;SDS011;12504;52.870;8.798;2023-01-08T11:17:26;2.25;;;1.00;;
24383;SDS011;12504;52.870;8.798;2023-01-08T11:19:53;8.77;;;1.48;;
24383;SDS011;12504;52.870;8.798;2023-01-08T11:22:20;6.25;;;1.40;;
24383;SDS011;12504;52.870;8.798;2023-01-08T11:24:50;2.08;;;1.05;;
24383;SDS011;12504;52.870;8.798;2023-01-08T11:27:39;1.80;;;1.02;;
24383;SDS011;12504;52.870;8.798;2023-01-08T11:35:24;2.15;;;1.15;;
24383;SDS011;12504;52.870;8.798;2023-01-08T11:37:56;3.80;;;1.50;;
24383;SDS011;12504;52.870;8.798;2023-01-08T11:40:39;5.77;;;1.67;;
24383;SDS011;12504;52.870;8.798;2023-01-08T11:49:22;7.63;;;1.42;;
24383;SDS011;12504;52.870;8.798;2023-01-08T12:02:34;4.65;;;2.13;;
24383;SDS011;12504;52.870;8.798;2023-01-08T12:21:32;11.95;;;2.67;;
24383;SDS011;12504;52.870;8.798;2023-01-08T12:32:20;6.13;;;2.30;;
24383;SDS011;12504;52.870;8.798;2023-01-08T12:34:54;5.35;;;1.60;;
24383;SDS011;12504;52.870;8.798;2023-01-08T12:37:57;7.15;;;2.25;;
24383;SDS011;12504;52.870;8.798;2023-01-08T12:40:32;3.10;;;1.30;;
24383;SDS011;12504;52.870;8.798;2023-01-08T12:43:06;5.60;;;1.98;;
24383;SDS011;12504;52.870;8.798;2023-01-08T12:46:10;6.00;;;1.77;;
24383;SDS011;12504;52.870;8.798;2023-01-08T12:48:37;4.53;;;1.20;;
24383;SDS011;12504;52.870;8.798;2023-01-08T12:51:12;5.00;;;1.55;;
24383;SDS011;12504;52.870;8.798;2023-01-08T12:59:22;7.55;;;1.90;;
24383;SDS011;12504;52.870;8.798;2023-01-08T13:04:43;11.15;;;2.22;;
24383;SDS011;12504;52.870;8.798;2023-01-08T13:12:25;9.70;;;1.20;;
24383;SDS011;12504;52.870;8.798;2023-01-08T13:14:58;9.07;;;1.73;;
24383;SDS011;12504;52.870;8.798;2023-01-08T13:17:24;5.03;;;1.85;;
24383;SDS011;12504;52.870;8.798;2023-01-08T13:19:53;7.20;;;2.53;;
24383;SDS011;12504;52.870;8.798;2023-01-08T13:22:28;11.35;;;4.57;;
24383;SDS011;12504;52.870;8.798;2023-01-08T13:27:44;4.47;;;1.27;;
24383;SDS011;12504;52.870;8.798;2023-01-08T13:33:00;7.90;;;1.67;;
24383;SDS011;12504;52.870;8.798;2023-01-08T13:35:29;4.95;;;1.45;;
24383;SDS011;12504;52.870;8.798;2023-01-08T13:38:18;6.90;;;2.53;;
24383;SDS011;12504;52.870;8.798;2023-01-08T13:43:11;4.88;;;1.80;;
24383;SDS011;12504;52.870;8.798;2023-01-08T13:48:24;6.50;;;1.60;;
24383;SDS011;12504;52.870;8.798;2023-01-08T13:50:56;8.30;;;1.90;;
24383;SDS011;12504;52.870;8.798;2023-01-08T13:53:22;6.03;;;1.30;;
24383;SDS011;12504;52.870;8.798;2023-01-08T13:55:53;4.20;;;1.67;;
24383;SDS011;12504;52.870;8.798;2023-01-08T13:58:25;6.05;;;1.50;;
24383;SDS011;12504;52.870;8.798;2023-01-08T14:00:54;10.90;;;1.90;;
24383;SDS011;12504;52.870;8.798;2023-01-08T14:06:03;8.43;;;1.67;;
24383;SDS011;12504;52.870;8.798;2023-01-08T14:08:47;5.85;;;1.80;;
24383;SDS011;12504;52.870;8.798;2023-01-08T14:11:27;4.90;;;1.92;;
24383;SDS011;12504;52.870;8.798;2023-01-08T14:13:53;6.40;;;2.00;;
24383;SDS011;12504;52.870;8.798;2023-01-08T14:16:20;7.68;;;1.95;;
24383;SDS011;12504;52.870;8.798;2023-01-08T14:18:46;9.10;;;2.47;;
24383;SDS011;12504;52.870;8.798;2023-01-08T14:21:13;8.98;;;2.38;;
24383;SDS011;12504;52.870;8.798;2023-01-08T14:23:45;10.23;;;2.53;;
24383;SDS011;12504;52.870;8.798;2023-01-08T14:26:29;11.30;;;3.13;;
24383;SDS011;12504;52.870;8.798;2023-01-08T14:29:00;8.50;;;1.60;;
24383;SDS011;12504;52.870;8.798;2023-01-08T14:31:28;10.63;;;3.03;;
24383;SDS011;12504;52.870;8.798;2023-01-08T14:33:55;6.40;;;2.00;;
24383;SDS011;12504;52.870;8.798;2023-01-08T14:36:23;13.07;;;3.05;;
24383;SDS011;12504;52.870;8.798;2023-01-08T14:38:50;6.00;;;2.35;;
24383;SDS011;12504;52.870;8.798;2023-01-08T14:44:31;17.77;;;6.55;;
24383;SDS011;12504;52.870;8.798;2023-01-08T14:46:56;11.25;;;3.80;;
24383;SDS011;12504;52.870;8.798;2023-01-08T14:49:26;5.32;;;1.77;;
24383;SDS011;12504;52.870;8.798;2023-01-08T14:51:55;9.00;;;2.33;;
24383;SDS011;12504;52.870;8.798;2023-01-08T14:54:25;6.95;;;2.33;;
24383;SDS011;12504;52.870;8.798;2023-01-08T14:56:58;8.73;;;1.92;;
24383;SDS011;12504;52.870;8.798;2023-01-08T14:59:27;11.70;;;2.45;;
24383;SDS011;12504;52.870;8.798;2023-01-08T15:01:56;15.90;;;3.33;;
24383;SDS011;12504;52.870;8.798;2023-01-08T15:04:24;6.38;;;2.65;;
24383;SDS011;12504;52.870;8.798;2023-01-08T15:06:51;8.68;;;3.28;;
24383;SDS011;12504;52.870;8.798;2023-01-08T15:09:31;4.97;;;2.28;;
24383;SDS011;12504;52.870;8.798;2023-01-08T15:12:21;12.45;;;2.40;;
24383;SDS011;12504;52.870;8.798;2023-01-08T15:14:48;4.63;;;1.88;;
24383;SDS011;12504;52.870;8.798;2023-01-08T15:17:15;2.90;;;1.92;;
24383;SDS011;12504;52.870;8.798;2023-01-08T15:19:48;9.18;;;2.72;;
24383;SDS011;12504;52.870;8.798;2023-01-08T15:22:22;10.85;;;4.03;;
24383;SDS011;12504;52.870;8.798;2023-01-08T15:27:23;10.57;;;1.70;;
24383;SDS011;12504;52.870;8.798;2023-01-08T15:29:50;4.68;;;1.95;;
24383;SDS011;12504;52.870;8.798;2023-01-08T15:32:26;9.27;;;3.22;;
24383;SDS011;12504;52.870;8.798;2023-01-08T15:34:54;6.07;;;2.63;;
24383;SDS011;12504;52.870;8.798;2023-01-08T15:37:19;5.57;;;2.00;;
24383;SDS011;12504;52.870;8.798;2023-01-08T15:39:45;4.15;;;2.60;;
24383;SDS011;12504;52.870;8.798;2023-01-08T15:42:19;5.93;;;2.58;;
24383;SDS011;12504;52.870;8.798;2023-01-08T15:45:08;3.13;;;1.40;;
24383;SDS011;12504;52.870;8.798;2023-01-08T15:47:37;3.45;;;1.63;;
24383;SDS011;12504;52.870;8.798;2023-01-08T15:50:02;3.53;;;1.77;;
24383;SDS011;12504;52.870;8.798;2023-01-08T15:52:29;4.35;;;0.98;;
24383;SDS011;12504;52.870;8.798;2023-01-08T15:54:59;2.35;;;1.10;;
24383;SDS011;12504;52.870;8.798;2023-01-08T15:57:26;3.05;;;1.05;;
24383;SDS011;12504;52.870;8.798;2023-01-08T15:59:54;2.58;;;1.65;;
24383;SDS011;12504;52.870;8.798;2023-01-08T16:02:21;1.27;;;0.77;;
24383;SDS011;12504;52.870;8.798;2023-01-08T16:04:53;4.43;;;2.88;;
24383;SDS011;12504;52.870;8.798;2023-01-08T16:07:21;2.75;;;1.80;;
24383;SDS011;12504;52.870;8.798;2023-01-08T16:09:49;2.72;;;1.65;;
24383;SDS011;12504;52.870;8.798;2023-01-08T16:12:15;3.08;;;1.67;;
24383;SDS011;12504;52.870;8.798;2023-01-08T16:14:41;2.47;;;0.90;;
24383;SDS011;12504;52.870;8.798;2023-01-08T16:17:06;1.55;;;0.82;;
24383;SDS011;12504;52.870;8.798;2023-01-08T16:19:34;1.60;;;0.68;;
24383;SDS011;12504;52.870;8.798;2023-01-08T16:21:59;1.08;;;0.93;;
24383;SDS011;12504;52.870;8.798;2023-01-08T16:24:25;0.93;;;0.73;;
24383;SDS011;12504;52.870;8.798;2023-01-08T16:26:51;2.75;;;0.60;;
24383;SDS011;12504;52.870;8.798;2023-01-08T16:29:17;1.33;;;0.70;;
24383;SDS011;12504;52.870;8.798;2023-01-08T16:31:43;2.80;;;0.82;;
24383;SDS011;12504;52.870;8.798;2023-01-08T16:34:10;2.88;;;2.05;;